createdAt,value
2023-05-19T00:00:16.892Z,10.72
2023-05-19T00:02:49.870Z,10.65
2023-05-19T00:05:03.708Z,10.65
2023-05-19T00:07:21.962Z,10.64
2023-05-19T00:09:34.797Z,10.59
2023-05-19T00:11:47.636Z,10.55
2023-05-19T00:14:00.689Z,10.50
2023-05-19T00:16:13.935Z,10.44
2023-05-19T00:18:26.665Z,10.42
2023-05-19T00:20:39.937Z,10.43
2023-05-19T00:22:52.550Z,10.41
2023-05-19T00:25:06.268Z,10.38
2023-05-19T00:27:18.838Z,10.30
2023-05-19T00:29:31.425Z,10.28
2023-05-19T00:31:44.265Z,10.24
2023-05-19T00:33:57.158Z,10.21
2023-05-19T00:36:09.858Z,10.17
2023-05-19T00:38:22.495Z,10.14
2023-05-19T00:40:36.472Z,10.12
2023-05-19T00:42:49.198Z,10.11
2023-05-19T00:45:02.049Z,10.09
2023-05-19T00:47:14.937Z,10.06
2023-05-19T00:49:27.536Z,10.03
2023-05-19T00:51:41.069Z,10.02
2023-05-19T00:53:53.889Z,9.99
2023-05-19T00:56:06.803Z,9.96
2023-05-19T00:58:19.553Z,9.94
2023-05-19T01:00:32.664Z,9.91
2023-05-19T01:02:45.726Z,9.88
2023-05-19T01:04:59.020Z,9.85
2023-05-19T01:07:12.527Z,9.85
2023-05-19T01:09:25.212Z,9.83
2023-05-19T01:11:37.759Z,9.84
2023-05-19T01:13:51.153Z,9.82
2023-05-19T01:16:13.112Z,9.79
2023-05-19T01:18:32.360Z,9.78
2023-05-19T01:20:52.479Z,9.77
2023-05-19T01:23:21.456Z,9.75
2023-05-19T01:26:00.948Z,9.69
2023-05-19T01:28:19.710Z,9.65
2023-05-19T01:30:43.612Z,9.64
2023-05-19T01:33:02.762Z,9.58
2023-05-19T01:35:16.681Z,9.53
2023-05-19T01:37:30.270Z,9.56
2023-05-19T01:39:44.620Z,9.61
2023-05-19T01:41:58.197Z,9.66
2023-05-19T01:44:11.765Z,9.70
2023-05-19T01:46:24.817Z,9.74
2023-05-19T01:48:38.587Z,9.77
2023-05-19T01:50:51.523Z,9.80
2023-05-19T01:53:04.384Z,9.82
2023-05-19T01:55:17.236Z,9.81
2023-05-19T01:57:48.635Z,9.83
2023-05-19T02:00:09.294Z,9.85
2023-05-19T02:02:51.193Z,9.89
2023-05-19T02:05:13.499Z,9.89
2023-05-19T02:07:35.675Z,9.92
2023-05-19T02:09:59.320Z,9.91
2023-05-19T02:12:37.687Z,9.86
2023-05-19T02:14:59.794Z,9.74
2023-05-19T02:17:15.792Z,9.70
2023-05-19T02:19:33.474Z,9.74
2023-05-19T02:21:46.036Z,9.77
2023-05-19T02:23:58.659Z,9.76
2023-05-19T02:26:11.275Z,9.80
2023-05-19T02:28:27.724Z,9.83
2023-05-19T02:30:40.265Z,9.83
2023-05-19T02:32:54.213Z,9.83
2023-05-19T02:35:07.198Z,9.86
2023-05-19T02:37:23.786Z,9.91
2023-05-19T02:39:36.381Z,9.97
2023-05-19T02:41:49.005Z,9.97
2023-05-19T02:44:01.581Z,9.99
2023-05-19T02:46:14.167Z,10.00
2023-05-19T02:48:26.887Z,10.00
2023-05-19T02:50:39.654Z,10.03
2023-05-19T02:52:53.858Z,10.08
2023-05-19T02:55:06.726Z,10.12
2023-05-19T02:57:19.487Z,10.15
2023-05-19T02:59:32.188Z,10.18
2023-05-19T03:01:44.931Z,10.20
2023-05-19T03:03:57.622Z,10.23
2023-05-19T03:06:10.220Z,10.25
2023-05-19T03:08:22.834Z,10.26
2023-05-19T03:10:36.300Z,10.26
2023-05-19T03:12:48.952Z,10.26
2023-05-19T03:15:01.718Z,10.23
2023-05-19T03:17:14.340Z,10.23
2023-05-19T03:19:27.595Z,10.24
2023-05-19T03:21:40.613Z,10.25
2023-05-19T03:23:54.631Z,10.29
2023-05-19T03:26:07.199Z,10.29
2023-05-19T03:28:20.028Z,10.33
2023-05-19T03:30:32.938Z,10.34
2023-05-19T03:32:45.808Z,10.33
2023-05-19T03:34:58.972Z,10.36
2023-05-19T03:37:12.780Z,10.40
2023-05-19T03:39:25.431Z,10.44
2023-05-19T03:41:38.028Z,10.49
2023-05-19T03:43:50.654Z,10.54
2023-05-19T03:46:03.424Z,10.59
2023-05-19T03:48:16.547Z,10.64
2023-05-19T03:50:31.632Z,10.69
2023-05-19T03:52:46.457Z,10.74
2023-05-19T03:54:59.027Z,10.79
2023-05-19T03:57:11.871Z,10.83
2023-05-19T03:59:24.667Z,10.87
2023-05-19T04:01:37.313Z,10.90
2023-05-19T04:03:49.882Z,10.92
2023-05-19T04:06:03.089Z,10.96
2023-05-19T04:08:15.849Z,11.02
2023-05-19T04:10:28.570Z,11.04
2023-05-19T04:12:41.209Z,10.99
2023-05-19T04:14:53.871Z,10.95
2023-05-19T04:17:06.691Z,10.93
2023-05-19T04:19:19.530Z,10.94
2023-05-19T04:21:32.109Z,10.93
2023-05-19T04:23:44.763Z,10.96
2023-05-19T04:25:58.141Z,10.97
2023-05-19T04:28:10.728Z,11.00
2023-05-19T04:30:24.482Z,11.02
2023-05-19T04:32:37.630Z,11.03
2023-05-19T04:34:50.338Z,11.02
2023-05-19T04:37:02.997Z,11.04
2023-05-19T04:39:15.696Z,11.06
2023-05-19T04:41:28.715Z,11.07
2023-05-19T04:43:44.492Z,11.11
2023-05-19T04:45:58.238Z,11.16
2023-05-19T04:48:12.201Z,11.16
2023-05-19T04:50:25.233Z,11.15
2023-05-19T04:52:37.923Z,11.18
2023-05-19T04:54:50.619Z,11.25
2023-05-19T04:57:03.932Z,11.33
2023-05-19T04:59:16.545Z,11.40
2023-05-19T05:01:31.241Z,11.48
2023-05-19T05:03:44.546Z,11.53
2023-05-19T05:05:58.659Z,11.55
2023-05-19T05:08:11.408Z,11.63
2023-05-19T05:10:24.055Z,11.69
2023-05-19T05:12:36.937Z,11.76
2023-05-19T05:14:49.787Z,11.85
2023-05-19T05:17:03.020Z,11.94
2023-05-19T05:19:16.012Z,11.92
2023-05-19T05:21:29.501Z,11.93
2023-05-19T05:23:42.351Z,11.92
2023-05-19T05:25:55.230Z,11.97
2023-05-19T05:28:07.786Z,12.03
2023-05-19T05:30:20.671Z,12.03
2023-05-19T05:32:33.438Z,11.98
2023-05-19T05:34:46.321Z,11.95
2023-05-19T05:36:58.962Z,11.94
2023-05-19T05:39:11.571Z,11.94
2023-05-19T05:41:24.215Z,11.98
2023-05-19T05:43:36.986Z,12.00
2023-05-19T05:45:49.712Z,11.97
2023-05-19T05:48:02.559Z,11.97
2023-05-19T05:50:15.714Z,12.05
2023-05-19T05:52:30.875Z,12.17
2023-05-19T05:54:43.792Z,12.27
2023-05-19T05:56:56.937Z,12.33
2023-05-19T05:59:09.514Z,12.38
2023-05-19T06:01:23.998Z,12.45
2023-05-19T06:03:46.192Z,12.47
2023-05-19T06:05:58.911Z,12.52
2023-05-19T06:08:11.612Z,12.53
2023-05-19T06:10:24.218Z,12.52
2023-05-19T06:12:40.569Z,12.59
2023-05-19T06:14:53.319Z,12.70
2023-05-19T06:17:08.140Z,12.73
2023-05-19T06:19:21.465Z,12.84
2023-05-19T06:21:34.170Z,13.00
2023-05-19T06:23:46.761Z,13.01
2023-05-19T06:25:59.404Z,13.03
2023-05-19T06:28:12.042Z,13.02
2023-05-19T06:30:24.795Z,12.93
2023-05-19T06:32:37.370Z,12.91
2023-05-19T06:34:54.652Z,12.90
2023-05-19T06:37:07.314Z,12.88
2023-05-19T06:39:19.941Z,12.92
2023-05-19T06:41:32.547Z,12.97
2023-05-19T06:43:45.122Z,13.00
2023-05-19T06:45:57.779Z,13.04
2023-05-19T06:48:10.499Z,13.11
2023-05-19T06:50:23.278Z,13.15
2023-05-19T06:52:36.202Z,13.18
2023-05-19T06:54:49.438Z,13.15
2023-05-19T06:57:02.687Z,13.10
2023-05-19T06:59:16.174Z,13.08
2023-05-19T07:01:30.230Z,13.04
2023-05-19T07:03:43.184Z,13.00
2023-05-19T07:05:56.154Z,12.99
2023-05-19T07:08:08.818Z,12.95
2023-05-19T07:10:21.974Z,12.90
2023-05-19T07:12:34.572Z,12.92
2023-05-19T07:14:47.180Z,12.94
2023-05-19T07:16:59.687Z,12.99
2023-05-19T07:19:12.332Z,13.05
2023-05-19T07:21:24.967Z,13.08
2023-05-19T07:23:37.578Z,13.03
2023-05-19T07:25:50.127Z,13.00
2023-05-19T07:28:02.822Z,12.97
2023-05-19T07:30:15.487Z,12.90
2023-05-19T07:32:28.094Z,12.88
2023-05-19T07:34:40.876Z,12.92
2023-05-19T07:36:53.611Z,12.94
2023-05-19T07:39:06.738Z,12.95
2023-05-19T07:41:19.317Z,13.01
2023-05-19T07:43:31.918Z,13.08
2023-05-19T07:45:44.521Z,13.18
2023-05-19T07:47:57.226Z,13.22
2023-05-19T07:50:09.957Z,13.25
2023-05-19T07:52:22.491Z,13.33
2023-05-19T07:54:35.086Z,13.37
2023-05-19T07:56:48.228Z,13.35
2023-05-19T07:59:00.824Z,13.28
2023-05-19T08:01:13.423Z,13.22
2023-05-19T08:03:26.845Z,13.27
2023-05-19T08:05:39.562Z,13.28
2023-05-19T08:07:52.195Z,13.23
2023-05-19T08:10:05.220Z,13.21
2023-05-19T08:12:17.814Z,13.27
2023-05-19T08:14:31.251Z,13.39
2023-05-19T08:16:45.706Z,13.48
2023-05-19T08:19:01.059Z,13.51
2023-05-19T08:21:13.724Z,13.51
2023-05-19T08:23:26.431Z,13.48
2023-05-19T08:25:39.069Z,13.45
2023-05-19T08:27:52.087Z,13.42
2023-05-19T08:30:05.157Z,13.50
2023-05-19T08:32:17.970Z,13.62
2023-05-19T08:34:30.990Z,13.66
2023-05-19T08:36:45.235Z,13.70
2023-05-19T08:38:57.793Z,13.79
2023-05-19T08:41:10.662Z,13.87
2023-05-19T08:43:23.225Z,13.95
2023-05-19T08:45:36.030Z,14.04
2023-05-19T08:47:50.934Z,14.25
2023-05-19T08:50:10.733Z,14.49
2023-05-19T08:52:52.550Z,14.61
2023-05-19T08:55:13.045Z,14.68
2023-05-19T08:57:25.780Z,14.73
2023-05-19T08:59:39.824Z,14.73
2023-05-19T09:01:54.706Z,14.81
2023-05-19T09:04:07.581Z,14.87
2023-05-19T09:06:21.316Z,14.97
2023-05-19T09:08:34.857Z,14.95
2023-05-19T09:10:47.422Z,14.80
2023-05-19T09:13:00.088Z,14.66
2023-05-19T09:15:13.403Z,14.60
2023-05-19T09:17:26.067Z,14.57
2023-05-19T09:19:43.236Z,14.60
2023-05-19T09:22:01.090Z,14.67
2023-05-19T09:24:13.652Z,14.68
2023-05-19T09:26:37.331Z,14.57
2023-05-19T09:28:49.937Z,14.51
2023-05-19T09:31:06.126Z,14.55
2023-05-19T09:33:19.975Z,14.61
2023-05-19T09:35:34.685Z,14.66
2023-05-19T09:37:47.432Z,14.66
2023-05-19T09:40:00.378Z,14.65
2023-05-19T09:42:13.919Z,14.78
2023-05-19T09:44:30.499Z,14.80
2023-05-19T09:46:52.893Z,14.82
2023-05-19T09:49:09.708Z,14.97
2023-05-19T09:51:22.398Z,15.08
2023-05-19T09:53:35.333Z,15.21
2023-05-19T09:55:48.696Z,15.21
2023-05-19T09:58:04.154Z,15.15
2023-05-19T10:00:18.460Z,15.24
2023-05-19T10:02:32.230Z,15.42
2023-05-19T10:04:45.122Z,15.69
2023-05-19T10:07:01.462Z,15.98
2023-05-19T10:09:15.929Z,16.54
2023-05-19T10:11:30.570Z,17.00
2023-05-19T10:13:45.716Z,17.36
2023-05-19T10:15:59.612Z,17.55
2023-05-19T10:18:17.510Z,17.73
2023-05-19T10:20:31.621Z,17.69
2023-05-19T10:22:46.254Z,17.58
2023-05-19T10:24:58.983Z,17.30
2023-05-19T10:27:14.924Z,17.23
2023-05-19T10:29:31.687Z,17.20
2023-05-19T10:31:46.860Z,17.20
2023-05-19T10:34:37.437Z,17.27
2023-05-19T10:37:03.510Z,17.28
2023-05-19T10:39:28.007Z,17.28
2023-05-19T10:41:59.950Z,17.19
2023-05-19T10:44:28.992Z,17.01
2023-05-19T10:46:43.055Z,16.76
2023-05-19T10:48:55.930Z,16.53
2023-05-19T10:51:12.170Z,16.40
2023-05-19T10:53:31.346Z,16.31
2023-05-19T10:55:55.917Z,16.25
2023-05-19T10:58:08.592Z,16.25
2023-05-19T11:00:28.784Z,16.34
2023-05-19T11:02:43.849Z,16.31
2023-05-19T11:05:18.210Z,16.29
2023-05-19T11:07:30.906Z,16.09
2023-05-19T11:09:43.668Z,15.96
2023-05-19T11:11:57.089Z,15.80
2023-05-19T11:14:11.560Z,15.67
2023-05-19T11:16:32.499Z,15.60
2023-05-19T11:18:48.996Z,15.44
2023-05-19T11:21:04.637Z,15.30
2023-05-19T11:23:20.402Z,15.30
2023-05-19T11:25:47.470Z,15.26
2023-05-19T11:28:00.196Z,15.22
2023-05-19T11:30:14.969Z,15.31
2023-05-19T11:32:30.519Z,15.39
2023-05-19T11:34:44.524Z,15.33
2023-05-19T11:36:57.605Z,15.29
2023-05-19T11:39:11.273Z,15.28
2023-05-19T11:41:23.878Z,15.24
2023-05-19T11:43:36.547Z,15.17
2023-05-19T11:45:49.392Z,15.11
2023-05-19T11:48:05.440Z,15.11
2023-05-19T11:50:18.689Z,15.09
2023-05-19T11:52:31.632Z,15.13
2023-05-19T11:54:48.592Z,15.18
2023-05-19T11:57:02.789Z,15.13
2023-05-19T11:59:15.539Z,15.04
2023-05-19T12:01:28.522Z,15.00
2023-05-19T12:03:41.196Z,14.96
2023-05-19T12:05:54.441Z,14.97
2023-05-19T12:08:07.706Z,14.93
2023-05-19T12:10:24.474Z,14.92
2023-05-19T12:12:37.860Z,14.96
2023-05-19T12:14:51.646Z,14.99
2023-05-19T12:17:12.717Z,14.97
2023-05-19T12:19:25.996Z,14.99
2023-05-19T12:21:39.254Z,15.15
2023-05-19T12:23:52.360Z,15.29
2023-05-19T12:26:05.182Z,15.29
2023-05-19T12:28:19.376Z,15.24
2023-05-19T12:30:33.200Z,15.14
2023-05-19T12:32:46.838Z,15.04
2023-05-19T12:35:02.141Z,15.04
2023-05-19T12:37:14.822Z,15.05
2023-05-19T12:39:27.469Z,15.01
2023-05-19T12:41:40.084Z,14.90
2023-05-19T12:43:54.545Z,14.81
2023-05-19T12:46:11.728Z,14.74
2023-05-19T12:48:24.398Z,14.75
2023-05-19T12:50:37.789Z,14.78
2023-05-19T12:52:53.698Z,14.79
2023-05-19T12:55:07.786Z,14.83
2023-05-19T12:57:20.983Z,14.90
2023-05-19T12:59:38.760Z,14.95
2023-05-19T13:01:57.729Z,14.93
2023-05-19T13:04:10.606Z,14.90
2023-05-19T13:06:23.516Z,14.92
2023-05-19T13:08:37.025Z,14.90
2023-05-19T13:10:50.145Z,14.96
2023-05-19T13:13:03.425Z,15.01
2023-05-19T13:15:16.019Z,15.06
2023-05-19T13:17:28.683Z,15.11
2023-05-19T13:19:41.348Z,15.16
2023-05-19T13:21:54.343Z,15.14
2023-05-19T13:24:07.086Z,15.17
2023-05-19T13:26:19.677Z,15.22
2023-05-19T13:28:32.317Z,15.22
2023-05-19T13:30:45.369Z,15.17
2023-05-19T13:32:58.019Z,15.22
2023-05-19T13:35:11.759Z,15.26
2023-05-19T13:37:24.826Z,15.27
2023-05-19T13:39:37.632Z,15.26
2023-05-19T13:41:50.525Z,15.22
2023-05-19T13:44:03.132Z,15.14
2023-05-19T13:46:15.716Z,15.09
2023-05-19T13:48:28.299Z,15.10
2023-05-19T13:50:40.882Z,15.05
2023-05-19T13:52:53.884Z,14.94
2023-05-19T13:55:07.649Z,14.86
2023-05-19T13:57:20.300Z,14.82
2023-05-19T13:59:35.136Z,14.80
2023-05-19T14:01:49.901Z,14.80
2023-05-19T14:04:02.792Z,14.76
2023-05-19T14:06:15.466Z,14.74
2023-05-19T14:08:28.132Z,14.74
2023-05-19T14:10:42.123Z,14.81
2023-05-19T14:13:25.776Z,14.93
2023-05-19T14:15:27.424Z,14.97
2023-05-19T14:17:40.087Z,15.05
2023-05-19T14:19:52.726Z,15.18
2023-05-19T14:22:05.556Z,15.24
2023-05-19T14:24:18.267Z,15.25
2023-05-19T14:26:30.887Z,15.28
2023-05-19T14:28:43.674Z,15.24
2023-05-19T14:30:56.554Z,15.23
2023-05-19T14:33:09.298Z,15.27
2023-05-19T14:35:22.642Z,15.27
2023-05-19T14:37:35.208Z,15.28
2023-05-19T14:39:47.843Z,15.28
2023-05-19T14:42:00.860Z,15.29
2023-05-19T14:44:13.538Z,15.20
2023-05-19T14:46:26.155Z,15.08
2023-05-19T14:48:38.733Z,15.06
2023-05-19T14:50:51.522Z,15.11
2023-05-19T14:53:04.149Z,15.16
2023-05-19T14:55:16.897Z,15.13
2023-05-19T14:57:29.438Z,15.22
2023-05-19T14:59:42.045Z,15.35
2023-05-19T15:01:54.626Z,15.55
2023-05-19T15:04:07.367Z,15.70
2023-05-19T15:06:19.937Z,15.78
2023-05-19T15:08:32.513Z,15.81
2023-05-19T15:10:48.776Z,15.75
2023-05-19T15:13:01.676Z,15.74
2023-05-19T15:15:16.063Z,15.74
2023-05-19T15:17:28.722Z,15.73
2023-05-19T15:19:42.763Z,15.67
2023-05-19T15:21:55.332Z,15.67
2023-05-19T15:24:07.895Z,15.73
2023-05-19T15:26:20.936Z,15.70
2023-05-19T15:28:34.175Z,15.71
2023-05-19T15:30:46.812Z,15.73
2023-05-19T15:32:59.616Z,15.75
2023-05-19T15:35:12.328Z,15.79
2023-05-19T15:37:24.995Z,15.87
2023-05-19T15:39:37.629Z,15.87
2023-05-19T15:41:51.270Z,15.86
2023-05-19T15:44:04.151Z,15.89
2023-05-19T15:46:19.126Z,15.90
2023-05-19T15:48:32.346Z,15.93
2023-05-19T15:50:45.058Z,15.87
2023-05-19T15:52:57.786Z,15.79
2023-05-19T15:55:10.337Z,15.81
2023-05-19T15:57:22.979Z,15.85
2023-05-19T15:59:35.676Z,15.88
2023-05-19T16:01:49.108Z,15.83
2023-05-19T16:04:03.920Z,15.78
2023-05-19T16:06:17.693Z,15.84
2023-05-19T16:08:30.464Z,15.83
2023-05-19T16:10:43.080Z,15.80
2023-05-19T16:12:55.760Z,15.79
2023-05-19T16:15:08.824Z,15.82
2023-05-19T16:17:21.728Z,15.81
2023-05-19T16:19:34.327Z,15.75
2023-05-19T16:21:47.366Z,15.73
2023-05-19T16:24:00.044Z,15.67
2023-05-19T16:26:12.671Z,15.68
2023-05-19T16:28:25.434Z,15.70
2023-05-19T16:30:38.061Z,15.67
2023-05-19T16:32:50.750Z,15.67
2023-05-19T16:35:03.696Z,15.65
2023-05-19T16:37:16.465Z,15.56
2023-05-19T16:39:29.101Z,15.50
2023-05-19T16:41:41.752Z,15.45
2023-05-19T16:43:54.327Z,15.40
2023-05-19T16:46:07.088Z,15.36
2023-05-19T16:48:19.740Z,15.29
2023-05-19T16:50:32.555Z,15.25
2023-05-19T16:52:45.215Z,15.24
2023-05-19T16:54:57.808Z,15.25
2023-05-19T16:57:10.485Z,15.23
2023-05-19T16:59:23.124Z,15.21
2023-05-19T17:01:35.875Z,15.17
2023-05-19T17:03:48.616Z,15.13
2023-05-19T17:06:01.551Z,15.09
2023-05-19T17:08:14.173Z,15.07
2023-05-19T17:10:26.843Z,15.03
2023-05-19T17:12:39.407Z,14.98
2023-05-19T17:14:52.183Z,14.93
2023-05-19T17:17:04.972Z,14.93
2023-05-19T17:19:17.721Z,14.94
2023-05-19T17:21:31.420Z,14.92
2023-05-19T17:23:43.982Z,14.91
2023-05-19T17:25:56.653Z,14.88
2023-05-19T17:28:09.412Z,14.83
2023-05-19T17:30:22.176Z,14.77
2023-05-19T17:32:38.416Z,14.71
2023-05-19T17:34:51.492Z,14.69
2023-05-19T17:37:04.266Z,14.69
2023-05-19T17:39:17.111Z,14.68
2023-05-19T17:41:29.724Z,14.69
2023-05-19T17:43:42.837Z,14.70
2023-05-19T17:45:55.609Z,14.66
2023-05-19T17:48:08.287Z,14.64
2023-05-19T17:50:20.980Z,14.63
2023-05-19T17:52:34.184Z,14.64
2023-05-19T17:54:47.323Z,14.67
2023-05-19T17:57:03.360Z,14.66
2023-05-19T17:59:16.180Z,14.66
2023-05-19T18:01:29.103Z,14.64
2023-05-19T18:03:43.466Z,14.64
2023-05-19T18:05:56.648Z,14.63
2023-05-19T18:08:09.989Z,14.64
2023-05-19T18:10:25.740Z,14.67
2023-05-19T18:12:38.524Z,14.69
2023-05-19T18:14:51.078Z,14.69
2023-05-19T18:17:04.276Z,14.70
2023-05-19T18:19:16.919Z,14.66
2023-05-19T18:21:29.572Z,14.60
2023-05-19T18:23:42.252Z,14.55
2023-05-19T18:25:54.886Z,14.53
2023-05-19T18:28:07.945Z,14.47
2023-05-19T18:30:21.401Z,14.43
2023-05-19T18:32:34.187Z,14.41
2023-05-19T18:34:46.803Z,14.41
2023-05-19T18:36:59.407Z,14.37
2023-05-19T18:39:12.048Z,14.34
2023-05-19T18:41:25.032Z,14.33
2023-05-19T18:43:37.728Z,14.36
2023-05-19T18:45:50.314Z,14.36
2023-05-19T18:48:02.980Z,14.34
2023-05-19T18:50:17.772Z,14.32
2023-05-19T18:52:31.336Z,14.31
2023-05-19T18:54:45.884Z,14.31
2023-05-19T18:56:58.962Z,14.32
2023-05-19T18:59:11.571Z,14.30
2023-05-19T19:01:24.484Z,14.29
2023-05-19T19:03:37.374Z,14.29
2023-05-19T19:05:57.767Z,14.29
2023-05-19T19:08:10.499Z,14.28
2023-05-19T19:10:23.263Z,14.26
2023-05-19T19:12:35.946Z,14.26
2023-05-19T19:14:48.647Z,14.28
2023-05-19T19:17:01.288Z,14.24
2023-05-19T19:19:13.957Z,14.22
2023-05-19T19:21:26.678Z,14.17
2023-05-19T19:23:39.292Z,14.15
2023-05-19T19:25:52.001Z,14.18
2023-05-19T19:28:04.716Z,14.21
2023-05-19T19:30:17.599Z,14.21
2023-05-19T19:32:31.776Z,14.19
2023-05-19T19:34:45.109Z,14.11
2023-05-19T19:36:57.678Z,14.10
2023-05-19T19:39:10.265Z,14.07
2023-05-19T19:41:23.043Z,14.08
2023-05-19T19:43:35.712Z,14.05
2023-05-19T19:45:48.364Z,14.00
2023-05-19T19:48:01.651Z,13.96
2023-05-19T19:50:14.500Z,13.91
2023-05-19T19:52:27.043Z,13.87
2023-05-19T19:54:39.609Z,13.85
2023-05-19T19:56:52.206Z,13.84
2023-05-19T19:59:04.969Z,13.81
2023-05-19T20:01:20.278Z,13.77
2023-05-19T20:03:33.681Z,13.72
2023-05-19T20:05:46.658Z,13.72
2023-05-19T20:07:59.366Z,13.74
2023-05-19T20:10:12.166Z,13.76
2023-05-19T20:12:24.880Z,13.76
2023-05-19T20:14:37.559Z,13.76
2023-05-19T20:16:50.403Z,13.74
2023-05-19T20:19:03.240Z,13.73
2023-05-19T20:21:16.036Z,13.72
2023-05-19T20:23:28.591Z,13.71
2023-05-19T20:25:51.035Z,13.68
2023-05-19T20:28:07.990Z,13.62
2023-05-19T20:30:20.761Z,13.59
2023-05-19T20:32:33.460Z,13.59
2023-05-19T20:34:46.515Z,13.60
2023-05-19T20:36:59.249Z,13.60
2023-05-19T20:39:11.860Z,13.58
2023-05-19T20:41:24.415Z,13.55
2023-05-19T20:43:37.056Z,13.57
2023-05-19T20:45:49.966Z,13.63
2023-05-19T20:48:03.764Z,13.64
2023-05-19T20:50:16.518Z,13.63
2023-05-19T20:52:29.085Z,13.66
2023-05-19T20:54:41.971Z,13.67
2023-05-19T20:56:54.684Z,13.66
2023-05-19T20:59:07.249Z,13.65
2023-05-19T21:01:19.923Z,13.61
2023-05-19T21:03:32.594Z,13.59
2023-05-19T21:05:45.127Z,13.60
2023-05-19T21:07:57.845Z,13.57
2023-05-19T21:10:12.392Z,13.56
2023-05-19T21:12:25.311Z,13.55
2023-05-19T21:14:37.979Z,13.55
2023-05-19T21:16:54.134Z,13.55
2023-05-19T21:19:07.033Z,13.53
2023-05-19T21:21:19.661Z,13.53
2023-05-19T21:23:32.252Z,13.51
2023-05-19T21:25:45.495Z,13.50
2023-05-19T21:27:58.374Z,13.51
2023-05-19T21:30:11.489Z,13.53
2023-05-19T21:36:12.015Z,13.31
2023-05-19T21:38:24.953Z,13.32
2023-05-19T21:40:37.793Z,13.32
2023-05-19T21:42:50.496Z,13.32
2023-05-19T21:45:03.232Z,13.32
2023-05-19T21:47:16.053Z,13.29
2023-05-19T21:49:28.597Z,13.30
2023-05-19T21:51:41.220Z,13.31
2023-05-19T21:53:53.864Z,13.28
2023-05-19T21:56:06.548Z,13.25
2023-05-19T21:58:19.297Z,13.27
2023-05-19T22:00:32.003Z,13.28
2023-05-19T22:02:45.045Z,13.27
2023-05-19T22:04:57.697Z,13.25
2023-05-19T22:07:10.437Z,13.24
2023-05-19T22:09:23.218Z,13.28
2023-05-19T22:11:35.886Z,13.30
2023-05-19T22:13:48.470Z,13.31
2023-05-19T22:16:01.327Z,13.31
2023-05-19T22:18:13.963Z,13.30
2023-05-19T22:20:26.565Z,13.28
2023-05-19T22:22:39.131Z,13.24
2023-05-19T22:24:51.792Z,13.20
2023-05-19T22:27:07.613Z,13.17
2023-05-19T22:29:20.816Z,13.17
2023-05-19T22:31:33.417Z,13.18
2023-05-19T22:33:46.181Z,13.19
2023-05-19T22:35:58.753Z,13.14
2023-05-19T22:38:11.845Z,13.12
2023-05-19T22:40:24.754Z,13.12
2023-05-19T22:42:37.350Z,13.09
2023-05-19T22:44:49.925Z,13.10
2023-05-19T22:47:02.512Z,13.09
2023-05-19T22:49:15.094Z,13.09
2023-05-19T22:51:27.697Z,13.12
2023-05-19T22:53:42.469Z,13.09
2023-05-19T22:55:54.998Z,13.06
2023-05-19T22:58:07.610Z,13.07
2023-05-19T23:00:21.003Z,13.07
2023-05-19T23:02:33.854Z,13.06
2023-05-19T23:04:46.566Z,13.06
2023-05-19T23:06:59.535Z,13.08
2023-05-19T23:09:12.212Z,13.06
2023-05-19T23:11:24.736Z,13.05
2023-05-19T23:13:37.291Z,13.02
2023-05-19T23:15:49.889Z,12.99
2023-05-19T23:18:06.969Z,12.96
2023-05-19T23:20:19.603Z,12.96
2023-05-19T23:22:32.128Z,12.97
2023-05-19T23:24:44.773Z,12.98
2023-05-19T23:26:57.382Z,13.00
2023-05-19T23:29:14.712Z,12.99
2023-05-19T23:31:27.275Z,12.96
2023-05-19T23:33:39.887Z,12.95
2023-05-19T23:35:54.260Z,12.96
2023-05-19T23:38:06.812Z,12.95
2023-05-19T23:40:19.398Z,12.92
2023-05-19T23:42:32.033Z,12.90
2023-05-19T23:44:44.596Z,12.93
2023-05-19T23:46:57.158Z,12.96
2023-05-19T23:49:09.855Z,12.97
2023-05-19T23:51:22.392Z,12.98
2023-05-19T23:53:34.989Z,13.01
2023-05-19T23:55:47.506Z,13.04
2023-05-19T23:58:00.138Z,13.02
